createdAt,value
2023-02-14T00:01:30.430Z,89.17
2023-02-14T00:06:35.592Z,87.43
2023-02-14T00:11:42.549Z,88.60
2023-02-14T00:16:44.703Z,78.50
2023-02-14T00:21:50.434Z,80.83
2023-02-14T00:26:54.650Z,84.33
2023-02-14T00:31:59.481Z,81.73
2023-02-14T00:37:04.419Z,76.87
2023-02-14T00:42:08.296Z,79.97
2023-02-14T00:47:15.639Z,77.13
2023-02-14T00:52:17.351Z,77.17
2023-02-14T00:57:19.192Z,73.23
2023-02-14T01:02:24.339Z,79.03
2023-02-14T01:07:30.323Z,71.47
2023-02-14T01:12:35.441Z,74.00
2023-02-14T01:17:43.412Z,73.57
2023-02-14T01:22:49.060Z,74.23
2023-02-14T01:27:51.151Z,71.80
2023-02-14T01:32:57.584Z,69.50
2023-02-14T01:38:02.413Z,66.80
2023-02-14T01:43:04.646Z,72.60
2023-02-14T01:48:09.844Z,68.90
2023-02-14T01:53:24.721Z,70.07
2023-02-14T01:58:28.437Z,71.60
2023-02-14T02:03:39.964Z,68.43
2023-02-14T02:08:52.831Z,73.57
2023-02-14T02:13:55.400Z,70.70
2023-02-14T02:19:16.997Z,72.97
2023-02-14T02:24:26.900Z,79.03
2023-02-14T02:29:49.173Z,74.53
2023-02-14T02:35:21.894Z,76.60
2023-02-14T02:40:39.848Z,75.03
2023-02-14T02:46:11.282Z,72.70
2023-02-14T02:51:46.384Z,74.80
2023-02-14T02:56:56.035Z,76.20
2023-02-14T03:02:16.566Z,75.40
2023-02-14T03:07:37.024Z,78.57
2023-02-14T03:13:22.365Z,76.73
2023-02-14T03:18:48.350Z,83.90
2023-02-14T03:24:08.259Z,75.27
2023-02-14T03:29:29.322Z,85.90
2023-02-14T03:34:47.591Z,87.73
2023-02-14T03:39:55.544Z,89.10
2023-02-14T03:45:01.400Z,88.70
2023-02-14T03:50:12.738Z,90.80
2023-02-14T03:55:20.315Z,95.97
2023-02-14T04:00:24.890Z,94.97
2023-02-14T04:05:28.755Z,101.13
2023-02-14T04:10:33.205Z,98.40
2023-02-14T04:15:35.005Z,112.83
2023-02-14T04:20:38.974Z,106.07
2023-02-14T04:25:45.607Z,111.87
2023-02-14T04:30:52.066Z,101.67
2023-02-14T04:35:56.887Z,108.53
2023-02-14T04:41:01.338Z,124.47
2023-02-14T04:46:07.932Z,110.57
2023-02-14T04:51:09.776Z,118.23
2023-02-14T04:56:13.833Z,123.50
2023-02-14T05:01:15.855Z,117.50
2023-02-14T05:06:20.063Z,122.43
2023-02-14T05:11:24.360Z,117.83
2023-02-14T05:16:26.185Z,122.07
2023-02-14T05:21:33.076Z,123.80
2023-02-14T05:26:37.840Z,145.60
2023-02-14T05:31:46.231Z,142.60
2023-02-14T05:36:50.152Z,165.63
2023-02-14T05:41:51.983Z,137.37
2023-02-14T05:46:56.353Z,166.37
2023-02-14T05:52:01.998Z,173.00
2023-02-14T05:57:03.740Z,165.57
2023-02-14T06:02:07.100Z,158.80
2023-02-14T06:07:08.980Z,148.77
2023-02-14T06:12:10.731Z,167.33
2023-02-14T06:17:12.419Z,135.37
2023-02-14T06:22:18.370Z,188.27
2023-02-14T06:27:20.022Z,179.07
2023-02-14T06:32:21.919Z,158.03
2023-02-14T06:37:25.646Z,155.97
2023-02-14T06:42:27.523Z,224.53
2023-02-14T06:47:29.448Z,183.47
2023-02-14T06:52:35.009Z,210.00
2023-02-14T06:57:40.219Z,252.57
2023-02-14T07:02:42.307Z,240.20
2023-02-14T07:07:46.705Z,177.53
2023-02-14T07:12:50.249Z,176.87
2023-02-14T07:17:54.341Z,320.67
2023-02-14T07:23:00.815Z,193.23
2023-02-14T07:28:04.778Z,280.93
2023-02-14T07:33:10.164Z,202.60
2023-02-14T07:38:17.365Z,232.33
2023-02-14T07:43:21.284Z,211.60
2023-02-14T07:48:25.334Z,219.53
2023-02-14T07:53:27.091Z,194.70
2023-02-14T07:58:28.774Z,155.57
2023-02-14T08:03:30.428Z,147.37
2023-02-14T08:08:36.703Z,186.10
2023-02-14T08:13:38.527Z,150.50
2023-02-14T08:18:42.120Z,131.23
2023-02-14T08:23:47.671Z,117.77
2023-02-14T08:28:49.503Z,116.37
2023-02-14T08:33:54.640Z,103.57
2023-02-14T08:38:57.842Z,95.53
2023-02-14T08:44:00.094Z,103.83
2023-02-14T08:49:01.971Z,91.60
2023-02-14T08:54:04.700Z,90.27
2023-02-14T08:59:09.011Z,79.53
2023-02-14T09:04:13.287Z,81.00
2023-02-14T09:09:19.427Z,77.30
2023-02-14T09:14:21.774Z,74.93
2023-02-14T09:19:26.492Z,72.93
2023-02-14T09:24:31.158Z,64.50
2023-02-14T09:29:35.266Z,67.60
2023-02-14T09:34:39.474Z,67.60
2023-02-14T09:39:46.120Z,62.33
2023-02-14T09:44:52.548Z,68.30
2023-02-14T09:49:54.485Z,56.87
2023-02-14T09:55:01.348Z,59.07
2023-02-14T10:00:14.665Z,55.30
2023-02-14T10:05:24.001Z,53.13
2023-02-14T10:10:28.417Z,57.73
2023-02-14T10:15:36.627Z,56.07
2023-02-14T10:20:53.908Z,57.87
2023-02-14T10:26:03.458Z,51.77
2023-02-14T10:31:15.363Z,51.73
2023-02-14T10:36:34.448Z,48.57
2023-02-14T10:41:45.135Z,44.27
2023-02-14T10:47:13.055Z,46.97
2023-02-14T10:52:34.353Z,42.57
2023-02-14T10:57:46.605Z,43.73
2023-02-14T11:02:52.521Z,43.93
2023-02-14T11:07:59.198Z,38.23
2023-02-14T11:13:03.514Z,45.57
2023-02-14T11:18:31.816Z,44.03
2023-02-14T11:23:46.936Z,40.73
2023-02-14T11:29:00.772Z,35.70
2023-02-14T11:34:18.756Z,37.30
2023-02-14T11:39:40.247Z,33.90
2023-02-14T11:44:56.315Z,32.83
2023-02-14T11:50:10.964Z,30.17
2023-02-14T11:55:25.502Z,31.77
2023-02-14T12:00:32.633Z,30.30
2023-02-14T12:05:45.645Z,32.00
2023-02-14T12:11:20.574Z,28.17
2023-02-14T12:16:29.492Z,29.48
2023-02-14T12:21:50.244Z,30.77
2023-02-14T12:27:04.160Z,28.52
2023-02-14T12:32:18.849Z,29.52
2023-02-14T12:37:28.409Z,26.08
2023-02-14T12:42:42.477Z,24.95
2023-02-14T12:47:57.732Z,23.50
2023-02-14T12:53:04.583Z,23.50
2023-02-14T12:58:29.157Z,23.58
2023-02-14T13:03:33.489Z,24.45
2023-02-14T13:09:14.653Z,24.65
2023-02-14T13:14:31.060Z,24.85
2023-02-14T13:19:56.803Z,24.10
2023-02-14T13:25:03.930Z,25.40
2023-02-14T13:30:24.118Z,25.35
2023-02-14T13:35:29.081Z,24.58
2023-02-14T13:40:32.062Z,24.67
2023-02-14T13:45:35.571Z,24.35
2023-02-14T13:50:39.729Z,22.63
2023-02-14T13:55:44.334Z,24.45
2023-02-14T14:00:47.156Z,22.38
2023-02-14T14:06:03.830Z,24.60
2023-02-14T14:11:34.853Z,21.92
2023-02-14T14:16:41.654Z,24.38
2023-02-14T14:22:02.578Z,24.85
2023-02-14T14:27:19.766Z,20.05
2023-02-14T14:32:40.045Z,22.10
2023-02-14T14:37:54.618Z,20.88
2023-02-14T14:43:11.948Z,20.20
2023-02-14T14:48:21.011Z,25.10
2023-02-14T14:53:47.285Z,20.15
2023-02-14T14:58:51.566Z,18.95
2023-02-14T15:03:53.332Z,22.20
2023-02-14T15:08:56.564Z,20.02
2023-02-14T15:13:59.348Z,21.27
2023-02-14T15:19:13.276Z,28.02
2023-02-14T15:24:16.847Z,29.70
2023-02-14T15:29:24.890Z,22.23
2023-02-14T15:34:32.370Z,28.98
2023-02-14T15:39:44.935Z,72.93
2023-02-14T15:44:47.785Z,51.92
2023-02-14T15:49:54.661Z,30.55
2023-02-14T15:55:01.396Z,29.05
2023-02-14T16:00:12.611Z,29.67
2023-02-14T16:05:19.775Z,27.15
2023-02-14T16:10:30.168Z,24.55
2023-02-14T16:15:42.131Z,33.33
2023-02-14T16:20:51.369Z,32.37
2023-02-14T16:25:58.845Z,78.30
2023-02-14T16:31:03.090Z,26.63
2023-02-14T16:36:12.429Z,98.60
2023-02-14T16:41:19.497Z,55.73
2023-02-14T16:46:28.821Z,43.80
2023-02-14T16:51:33.102Z,28.77
2023-02-14T16:56:40.778Z,24.67
2023-02-14T17:01:49.986Z,26.60
2023-02-14T17:06:57.153Z,25.47
2023-02-14T17:12:04.780Z,25.73
2023-02-14T17:17:10.488Z,25.53
2023-02-14T17:22:14.932Z,24.27
2023-02-14T17:27:23.995Z,23.33
2023-02-14T17:32:28.181Z,21.83
2023-02-14T17:37:31.530Z,25.20
2023-02-14T17:42:36.569Z,26.47
2023-02-14T17:47:45.670Z,29.77
2023-02-14T17:52:58.529Z,28.80
2023-02-14T17:58:02.278Z,28.10
2023-02-14T18:03:04.710Z,26.77
2023-02-14T18:08:09.703Z,27.50
2023-02-14T18:13:12.513Z,32.90
2023-02-14T18:18:20.876Z,25.23
2023-02-14T18:23:25.038Z,28.10
2023-02-14T18:28:27.448Z,23.83
2023-02-14T18:33:34.036Z,24.80
2023-02-14T18:38:35.878Z,27.37
2023-02-14T18:43:37.693Z,23.87
2023-02-14T18:48:44.531Z,28.87
2023-02-14T18:53:47.005Z,30.67
2023-02-14T18:58:54.171Z,47.40
2023-02-14T19:04:02.352Z,95.23
2023-02-14T19:09:08.982Z,99.33
2023-02-14T19:14:15.953Z,171.80
2023-02-14T19:19:20.310Z,144.70
2023-02-14T19:24:25.557Z,144.63
2023-02-14T19:29:34.001Z,88.67
2023-02-14T19:34:36.341Z,52.37
2023-02-14T19:39:41.014Z,46.03
2023-02-14T19:44:46.269Z,53.13
2023-02-14T19:49:50.527Z,39.93
2023-02-14T19:54:57.705Z,50.67
2023-02-14T20:00:06.802Z,46.17
2023-02-14T20:05:13.842Z,49.23
2023-02-14T20:10:25.533Z,49.83
2023-02-14T20:15:29.060Z,46.63
2023-02-14T20:20:50.755Z,44.67
2023-02-14T20:25:54.886Z,39.10
2023-02-14T20:30:59.206Z,42.13
2023-02-14T20:36:07.165Z,37.63
2023-02-14T20:41:13.631Z,30.60
2023-02-14T20:46:18.562Z,33.60
2023-02-14T20:51:24.114Z,30.60
2023-02-14T20:56:25.939Z,30.83
2023-02-14T21:01:28.355Z,31.33
2023-02-14T21:06:35.453Z,31.53
2023-02-14T21:11:37.560Z,30.63
2023-02-14T21:16:41.405Z,35.17
2023-02-14T21:21:48.665Z,29.10
2023-02-14T21:26:50.442Z,32.27
2023-02-14T21:31:54.514Z,31.90
2023-02-14T21:36:58.808Z,32.53
2023-02-14T21:42:02.334Z,37.50
2023-02-14T21:47:04.388Z,34.13
2023-02-14T21:52:08.331Z,35.03
2023-02-14T21:57:12.460Z,31.77
2023-02-14T22:02:17.068Z,33.37
2023-02-14T22:07:20.501Z,35.07
2023-02-14T22:12:22.411Z,32.00
2023-02-14T22:17:28.293Z,37.33
2023-02-14T22:22:30.074Z,35.07
2023-02-14T22:27:31.790Z,34.30
2023-02-14T22:32:33.444Z,32.43
2023-02-14T22:37:37.517Z,38.33
2023-02-14T22:42:39.472Z,33.30
2023-02-14T22:47:44.231Z,51.73
2023-02-14T22:52:48.939Z,36.17
2023-02-14T22:57:55.903Z,34.10
2023-02-14T23:02:59.840Z,41.43
2023-02-14T23:08:03.894Z,33.73
2023-02-14T23:13:24.174Z,35.13
2023-02-14T23:18:44.321Z,38.23
2023-02-14T23:23:48.336Z,31.80
2023-02-14T23:28:50.058Z,36.37
2023-02-14T23:33:54.194Z,34.47
2023-02-14T23:38:56.175Z,35.20
2023-02-14T23:43:57.916Z,37.83
2023-02-14T23:48:59.641Z,44.93
2023-02-14T23:54:01.552Z,63.77
2023-02-14T23:59:05.383Z,37.20
